createdAt,value
2019-04-16T00:00:42.497Z,14.90
2019-04-16T00:03:42.997Z,12.13
2019-04-16T00:06:30.338Z,13.20
2019-04-16T00:09:33.050Z,10.67
2019-04-16T00:12:28.568Z,11.13
2019-04-16T00:15:08.905Z,11.20
2019-04-16T00:17:49.023Z,12.47
2019-04-16T00:20:29.762Z,11.07
2019-04-16T00:23:16.730Z,11.10
2019-04-16T00:25:56.684Z,12.20
2019-04-16T00:28:36.421Z,11.50
2019-04-16T00:31:16.429Z,13.90
2019-04-16T00:33:56.413Z,12.00
2019-04-16T00:36:36.607Z,11.33
2019-04-16T00:39:16.777Z,11.63
2019-04-16T00:41:56.736Z,12.20
2019-04-16T00:44:36.940Z,10.68
2019-04-16T00:47:16.981Z,12.40
2019-04-16T00:49:58.871Z,14.28
2019-04-16T00:52:39.341Z,11.00
2019-04-16T00:55:19.434Z,14.13
2019-04-16T00:58:00.072Z,10.63
2019-04-16T01:00:39.918Z,15.48
2019-04-16T01:03:19.870Z,11.80
2019-04-16T01:06:00.466Z,11.35
2019-04-16T01:08:53.902Z,12.78
2019-04-16T01:11:25.567Z,11.35
2019-04-16T01:14:06.319Z,16.55
2019-04-16T01:16:46.424Z,12.58
2019-04-16T01:19:26.364Z,12.93
2019-04-16T01:22:06.822Z,14.53
2019-04-16T01:24:46.333Z,11.28
2019-04-16T01:31:00.281Z,11.73
2019-04-16T01:37:18.057Z,12.35
2019-04-16T01:40:00.014Z,10.85
2019-04-16T01:42:39.756Z,15.48
2019-04-16T01:45:19.852Z,13.48
2019-04-16T01:47:59.577Z,12.43
2019-04-16T01:50:43.509Z,11.95
2019-04-16T01:53:21.940Z,13.18
2019-04-16T01:56:01.899Z,12.30
2019-04-16T01:58:43.301Z,11.57
2019-04-16T02:01:23.631Z,11.78
2019-04-16T02:04:03.684Z,13.05
2019-04-16T02:06:43.779Z,11.88
2019-04-16T02:09:23.345Z,12.33
2019-04-16T02:12:03.219Z,13.43
2019-04-16T02:14:43.608Z,12.07
2019-04-16T02:17:26.677Z,11.05
2019-04-16T02:20:06.935Z,14.80
2019-04-16T02:22:47.843Z,11.25
2019-04-16T02:25:27.606Z,15.08
2019-04-16T02:28:07.987Z,11.88
2019-04-16T02:30:47.733Z,11.85
2019-04-16T02:33:30.701Z,12.55
2019-04-16T02:36:10.495Z,11.65
2019-04-16T02:38:53.231Z,13.95
2019-04-16T02:41:33.785Z,12.33
2019-04-16T02:44:16.644Z,12.55
2019-04-16T02:46:55.771Z,10.72
2019-04-16T02:49:35.753Z,11.25
2019-04-16T02:52:38.219Z,13.55
2019-04-16T02:55:42.849Z,12.75
2019-04-16T02:58:38.567Z,12.30
2019-04-16T03:04:26.773Z,13.32
2019-04-16T03:06:52.484Z,10.93
2019-04-16T03:09:40.215Z,11.38
2019-04-16T03:12:27.847Z,14.35
2019-04-16T03:15:08.819Z,9.98
2019-04-16T03:17:48.876Z,11.88
2019-04-16T03:20:29.544Z,11.35
2019-04-16T03:23:09.431Z,11.10
2019-04-16T03:25:49.281Z,11.38
2019-04-16T03:28:29.502Z,10.53
2019-04-16T03:31:18.967Z,11.43
2019-04-16T03:33:51.697Z,13.70
2019-04-16T03:36:31.732Z,11.53
2019-04-16T03:39:13.880Z,12.55
2019-04-16T03:41:56.215Z,10.43
2019-04-16T03:44:37.136Z,17.05
2019-04-16T03:47:19.384Z,11.35
2019-04-16T03:50:00.252Z,11.97
2019-04-16T03:52:45.498Z,10.48
2019-04-16T03:55:26.280Z,10.40
2019-04-16T03:58:07.174Z,9.75
2019-04-16T04:00:48.011Z,13.88
2019-04-16T04:03:27.930Z,12.90
2019-04-16T04:06:08.312Z,9.85
2019-04-16T04:08:49.319Z,10.80
2019-04-16T04:11:30.196Z,12.35
2019-04-16T04:14:10.024Z,11.95
2019-04-16T04:16:48.088Z,11.48
2019-04-16T04:19:34.680Z,14.58
2019-04-16T04:22:22.740Z,11.65
2019-04-16T04:25:24.435Z,11.60
2019-04-16T04:28:03.888Z,12.40
2019-04-16T04:30:44.350Z,10.53
2019-04-16T04:33:43.974Z,12.43
2019-04-16T04:36:27.065Z,16.77
2019-04-16T04:39:08.984Z,12.45
2019-04-16T04:41:47.564Z,11.08
2019-04-16T04:44:27.733Z,12.00
2019-04-16T04:47:08.071Z,10.53
2019-04-16T04:49:48.252Z,12.03
2019-04-16T04:52:28.215Z,11.85
2019-04-16T04:55:08.040Z,8.55
2019-04-16T04:57:48.020Z,10.80
2019-04-16T05:00:28.356Z,12.60
2019-04-16T05:03:12.391Z,11.20
2019-04-16T05:05:56.038Z,12.78
2019-04-16T05:08:37.528Z,9.75
2019-04-16T05:11:17.577Z,10.60
2019-04-16T05:13:57.383Z,11.22
2019-04-16T05:16:37.321Z,11.20
2019-04-16T05:19:17.405Z,12.40
2019-04-16T05:21:57.606Z,12.05
2019-04-16T05:24:37.830Z,9.93
2019-04-16T05:27:17.716Z,11.63
2019-04-16T05:32:44.246Z,10.75
2019-04-16T05:35:22.196Z,12.13
2019-04-16T05:38:08.995Z,9.10
2019-04-16T05:40:49.327Z,11.80
2019-04-16T05:43:30.238Z,13.43
2019-04-16T05:45:58.806Z,11.12
2019-04-16T05:48:45.682Z,8.93
2019-04-16T05:51:30.924Z,10.10
2019-04-16T05:54:28.862Z,10.10
2019-04-16T05:57:11.621Z,11.57
2019-04-16T05:59:49.506Z,11.20
2019-04-16T06:02:56.271Z,9.57
2019-04-16T06:05:36.916Z,11.60
2019-04-16T06:08:17.310Z,11.23
2019-04-16T06:10:57.634Z,9.57
2019-04-16T06:17:00.004Z,12.67
2019-04-16T06:19:59.093Z,10.43
2019-04-16T06:23:01.585Z,10.80
2019-04-16T06:25:58.507Z,10.00
2019-04-16T06:28:39.289Z,9.97
2019-04-16T06:31:28.842Z,10.07
2019-04-16T06:34:34.552Z,14.23
2019-04-16T06:37:21.477Z,10.70
2019-04-16T06:40:20.946Z,10.53
2019-04-16T06:43:06.377Z,10.00
2019-04-16T06:49:21.362Z,11.80
2019-04-16T06:52:20.583Z,11.37
2019-04-16T06:55:12.054Z,10.67
2019-04-16T06:58:12.577Z,11.67
2019-04-16T07:01:36.795Z,10.67
2019-04-16T07:04:24.307Z,10.27
2019-04-16T07:07:24.055Z,11.80
2019-04-16T07:10:07.721Z,10.40
2019-04-16T07:12:48.397Z,10.63
2019-04-16T07:15:28.972Z,10.20
2019-04-16T07:18:08.764Z,10.70
2019-04-16T07:20:49.004Z,10.33
2019-04-16T07:23:28.834Z,10.57
2019-04-16T07:26:13.543Z,10.80
2019-04-16T07:28:59.687Z,11.20
2019-04-16T07:35:19.415Z,9.77
2019-04-16T07:38:24.656Z,10.00
2019-04-16T07:41:27.406Z,9.87
2019-04-16T07:44:13.727Z,11.07
2019-04-16T07:47:10.249Z,10.70
2019-04-16T07:50:32.442Z,10.53
2019-04-16T07:53:30.932Z,11.90
2019-04-16T07:56:15.384Z,10.20
2019-04-16T07:59:00.245Z,11.43
2019-04-16T08:01:37.408Z,10.63
2019-04-16T08:04:28.318Z,11.77
2019-04-16T08:07:00.172Z,10.97
2019-04-16T08:09:40.176Z,11.70
2019-04-16T08:12:29.862Z,11.97
2019-04-16T08:15:13.296Z,11.50
2019-04-16T08:17:44.872Z,10.10
2019-04-16T08:20:25.013Z,12.97
2019-04-16T08:23:24.657Z,13.20
2019-04-16T08:26:08.236Z,10.50
2019-04-16T08:28:46.358Z,10.57
2019-04-16T08:31:27.823Z,9.67
2019-04-16T08:34:07.259Z,11.33
2019-04-16T08:36:48.949Z,11.30
2019-04-16T08:39:27.104Z,12.17
2019-04-16T08:42:13.609Z,11.60
2019-04-16T08:44:53.427Z,11.03
2019-04-16T08:47:33.437Z,12.60
2019-04-16T08:50:13.501Z,11.53
2019-04-16T08:52:53.413Z,12.47
2019-04-16T08:55:33.675Z,11.40
2019-04-16T08:58:13.758Z,12.70
2019-04-16T09:00:54.176Z,12.87
2019-04-16T09:03:33.845Z,13.30
2019-04-16T09:06:14.301Z,11.30
2019-04-16T09:09:18.302Z,11.70
2019-04-16T09:12:08.893Z,12.33
2019-04-16T09:14:54.833Z,12.27
2019-04-16T09:17:37.976Z,13.30
2019-04-16T09:20:23.565Z,12.53
2019-04-16T09:23:03.777Z,12.40
2019-04-16T09:26:13.670Z,11.77
2019-04-16T09:29:09.954Z,12.73
2019-04-16T09:32:28.599Z,13.07
2019-04-16T09:35:19.873Z,11.90
2019-04-16T09:38:23.902Z,12.40
2019-04-16T09:41:18.621Z,11.93
2019-04-16T09:43:59.095Z,13.63
2019-04-16T09:46:50.907Z,13.83
2019-04-16T09:49:21.550Z,11.93
2019-04-16T09:52:07.704Z,12.03
2019-04-16T09:54:47.469Z,13.07
2019-04-16T09:57:31.146Z,13.20
2019-04-16T10:00:11.854Z,11.93
2019-04-16T10:02:55.027Z,13.03
2019-04-16T10:05:22.673Z,12.07
2019-04-16T10:08:09.570Z,12.43
2019-04-16T10:11:10.943Z,14.33
2019-04-16T10:13:50.544Z,13.40
2019-04-16T10:16:30.449Z,14.10
2019-04-16T10:19:10.468Z,15.23
2019-04-16T10:21:54.355Z,13.87
2019-04-16T10:24:57.745Z,14.60
2019-04-16T10:27:51.406Z,13.73
2019-04-16T10:34:03.905Z,14.83
2019-04-16T10:36:44.222Z,14.20
2019-04-16T10:42:26.320Z,12.80
2019-04-16T10:45:25.929Z,14.00
2019-04-16T10:48:25.254Z,14.27
2019-04-16T10:54:43.690Z,13.63
2019-04-16T10:57:39.015Z,14.37
2019-04-16T11:00:38.250Z,13.97
2019-04-16T11:03:34.413Z,13.63
2019-04-16T11:06:40.591Z,13.83
2019-04-16T11:09:20.914Z,14.00
2019-04-16T11:12:04.793Z,14.17
2019-04-16T11:14:44.522Z,13.60
2019-04-16T11:17:26.511Z,13.73
2019-04-16T11:20:06.246Z,14.67
2019-04-16T11:22:46.520Z,12.73
2019-04-16T11:25:26.283Z,12.90
2019-04-16T11:28:06.520Z,13.37
2019-04-16T11:30:49.252Z,14.80
2019-04-16T11:33:29.695Z,13.67
2019-04-16T11:36:18.574Z,14.73
2019-04-16T11:38:51.937Z,14.03
2019-04-16T11:41:31.973Z,16.90
2019-04-16T11:44:15.685Z,15.73
2019-04-16T11:46:54.452Z,15.57
2019-04-16T11:49:34.465Z,16.73
2019-04-16T11:52:14.347Z,16.87
2019-04-16T11:54:54.324Z,16.10
2019-04-16T11:57:34.614Z,16.17
2019-04-16T12:00:18.503Z,15.63
2019-04-16T12:03:18.413Z,15.03
2019-04-16T12:06:27.694Z,15.43
2019-04-16T12:09:13.805Z,14.23
2019-04-16T12:15:44.553Z,16.37
2019-04-16T12:18:44.223Z,16.20
2019-04-16T12:21:44.236Z,16.13
2019-04-16T12:24:43.756Z,16.00
2019-04-16T12:27:50.353Z,14.83
2019-04-16T12:30:49.898Z,15.20
2019-04-16T12:34:11.227Z,13.57
2019-04-16T12:40:23.532Z,13.47
2019-04-16T12:43:05.571Z,12.97
2019-04-16T12:45:47.112Z,11.63
2019-04-16T12:48:35.844Z,12.00
2019-04-16T12:51:46.402Z,11.70
2019-04-16T12:54:37.472Z,12.13
2019-04-16T13:00:40.459Z,11.60
2019-04-16T13:03:46.628Z,14.40
2019-04-16T13:06:54.685Z,13.23
2019-04-16T13:09:45.945Z,12.83
2019-04-16T13:12:37.585Z,11.03
2019-04-16T13:15:38.737Z,12.50
2019-04-16T13:18:25.641Z,13.30
2019-04-16T13:21:25.146Z,13.00
2019-04-16T13:24:10.904Z,11.73
2019-04-16T13:26:59.849Z,12.57
2019-04-16T13:29:39.730Z,12.13
2019-04-16T13:32:20.102Z,11.57
2019-04-16T13:35:00.118Z,12.30
2019-04-16T13:37:39.807Z,11.83
2019-04-16T13:40:21.351Z,11.57
2019-04-16T13:43:01.494Z,10.80
2019-04-16T13:45:42.729Z,10.67
2019-04-16T13:51:38.370Z,10.87
2019-04-16T13:57:41.628Z,8.93
2019-04-16T14:00:27.534Z,9.83
2019-04-16T14:03:10.324Z,8.77
2019-04-16T14:05:50.525Z,8.97
2019-04-16T14:08:30.593Z,9.57
2019-04-16T14:11:09.928Z,9.07
2019-04-16T14:13:50.288Z,10.33
2019-04-16T14:16:30.120Z,10.87
2019-04-16T14:19:09.731Z,9.83
2019-04-16T14:21:49.756Z,12.77
2019-04-16T14:24:30.091Z,10.10
2019-04-16T14:27:13.756Z,10.67
2019-04-16T14:29:51.788Z,10.53
2019-04-16T14:32:31.970Z,9.40
2019-04-16T14:35:14.839Z,11.30
2019-04-16T14:37:52.798Z,10.43
2019-04-16T14:40:42.268Z,11.37
2019-04-16T14:43:43.482Z,10.10
2019-04-16T14:46:28.241Z,11.73
2019-04-16T14:49:05.840Z,10.70
2019-04-16T14:51:45.871Z,9.80
2019-04-16T14:58:00.122Z,9.97
2019-04-16T15:00:59.309Z,11.23
2019-04-16T15:07:11.249Z,10.07
2019-04-16T15:10:10.990Z,10.50
2019-04-16T15:13:10.069Z,10.13
2019-04-16T15:16:08.709Z,11.00
2019-04-16T15:18:56.692Z,11.47
2019-04-16T15:21:55.891Z,12.23
2019-04-16T15:24:45.725Z,10.50
2019-04-16T15:27:45.158Z,13.07
2019-04-16T15:30:36.538Z,12.60
2019-04-16T15:33:27.009Z,12.93
2019-04-16T15:36:09.972Z,13.23
2019-04-16T15:42:30.984Z,10.73
2019-04-16T15:45:25.618Z,13.23
2019-04-16T15:48:40.806Z,13.97
2019-04-16T15:51:26.770Z,12.20
2019-04-16T15:54:28.730Z,14.17
2019-04-16T15:57:27.995Z,13.00
2019-04-16T16:00:12.322Z,13.30
2019-04-16T16:03:12.437Z,16.70
2019-04-16T16:05:56.557Z,15.20
2019-04-16T16:12:00.812Z,14.07
2019-04-16T16:14:40.130Z,14.03
2019-04-16T16:17:22.631Z,13.97
2019-04-16T16:20:02.247Z,15.97
2019-04-16T16:22:42.532Z,16.17
2019-04-16T16:25:22.512Z,15.90
2019-04-16T16:28:03.143Z,14.40
2019-04-16T16:30:42.863Z,16.00
2019-04-16T16:33:22.884Z,18.07
2019-04-16T16:36:03.224Z,15.80
2019-04-16T16:38:48.318Z,16.03
2019-04-16T16:41:25.199Z,17.33
2019-04-16T16:44:05.136Z,15.50
2019-04-16T16:47:04.499Z,15.77
2019-04-16T16:49:44.216Z,16.23
2019-04-16T16:52:44.550Z,14.23
2019-04-16T16:55:29.668Z,16.80
2019-04-16T16:58:28.596Z,17.20
2019-04-16T17:04:22.500Z,15.93
2019-04-16T17:07:04.402Z,16.30
2019-04-16T17:09:44.045Z,21.13
2019-04-16T17:12:24.020Z,17.27
2019-04-16T17:15:03.966Z,16.10
2019-04-16T17:17:44.253Z,20.03
2019-04-16T17:20:24.098Z,18.63
2019-04-16T17:23:04.442Z,18.53
2019-04-16T17:25:44.619Z,17.00
2019-04-16T17:28:24.348Z,17.83
2019-04-16T17:31:03.817Z,18.40
2019-04-16T17:33:43.843Z,19.27
2019-04-16T17:36:23.754Z,18.80
2019-04-16T17:39:09.540Z,18.00
2019-04-16T17:41:58.165Z,20.30
2019-04-16T17:45:16.588Z,15.17
2019-04-16T17:48:01.103Z,17.47
2019-04-16T17:51:01.108Z,17.83
2019-04-16T17:53:42.205Z,18.97
2019-04-16T17:56:22.555Z,18.40
2019-04-16T17:59:06.576Z,17.00
2019-04-16T18:02:06.287Z,13.67
2019-04-16T18:05:05.373Z,9.37
2019-04-16T18:08:04.437Z,6.70
2019-04-16T18:11:06.149Z,5.70
2019-04-16T18:14:07.631Z,6.60
2019-04-16T18:20:36.873Z,5.27
2019-04-16T18:23:27.471Z,6.10
2019-04-16T18:26:32.978Z,4.63
2019-04-16T18:29:32.987Z,5.10
2019-04-16T18:32:53.470Z,5.90
2019-04-16T18:35:37.467Z,5.50
2019-04-16T18:45:12.798Z,6.50
2019-04-16T18:48:04.870Z,5.77
2019-04-16T18:50:38.274Z,6.40
2019-04-16T18:53:18.660Z,5.63
2019-04-16T18:55:58.973Z,6.57
2019-04-16T18:58:41.691Z,5.73
2019-04-16T19:01:24.786Z,6.83
2019-04-16T19:04:04.332Z,6.53
2019-04-16T19:06:44.166Z,6.27
2019-04-16T19:09:24.555Z,5.77
2019-04-16T19:12:04.874Z,6.10
2019-04-16T19:14:44.980Z,6.83
2019-04-16T19:17:24.976Z,5.03
2019-04-16T19:20:05.375Z,5.13
2019-04-16T19:22:46.509Z,4.23
2019-04-16T19:25:27.378Z,4.43
2019-04-16T19:28:07.267Z,4.00
2019-04-16T19:30:47.857Z,4.90
2019-04-16T19:33:33.361Z,5.03
2019-04-16T19:36:09.880Z,4.13
2019-04-16T19:38:49.865Z,4.60
2019-04-16T19:44:12.045Z,4.60
2019-04-16T19:46:53.750Z,4.40
2019-04-16T19:49:33.969Z,3.87
2019-04-16T19:52:17.245Z,3.60
2019-04-16T19:54:56.189Z,3.40
2019-04-16T19:57:36.050Z,3.57
2019-04-16T20:00:22.037Z,3.83
2019-04-16T20:02:59.654Z,3.50
2019-04-16T20:05:39.541Z,3.43
2019-04-16T20:08:20.868Z,2.97
2019-04-16T20:11:01.051Z,2.77
2019-04-16T20:13:42.570Z,3.47
2019-04-16T20:16:22.772Z,3.10
2019-04-16T20:19:03.257Z,3.53
2019-04-16T20:21:42.777Z,2.63
2019-04-16T20:24:23.060Z,3.30
2019-04-16T20:27:06.729Z,3.90
2019-04-16T20:32:34.412Z,3.37
2019-04-16T20:35:17.688Z,3.07
2019-04-16T20:37:55.814Z,3.67
2019-04-16T20:40:33.877Z,3.07
2019-04-16T20:43:20.760Z,5.13
2019-04-16T20:48:47.248Z,3.57
2019-04-16T20:51:27.374Z,3.60
2019-04-16T20:54:12.781Z,3.60
2019-04-16T20:56:53.233Z,3.40
2019-04-16T20:59:36.109Z,3.80
2019-04-16T21:02:14.820Z,3.30
2019-04-16T21:04:54.388Z,3.07
2019-04-16T21:07:34.594Z,3.60
2019-04-16T21:10:14.972Z,3.47
2019-04-16T21:12:55.991Z,3.83
2019-04-16T21:15:36.108Z,3.40
2019-04-16T21:18:16.225Z,3.60
2019-04-16T21:20:56.227Z,3.10
2019-04-16T21:23:35.824Z,3.90
2019-04-16T21:26:16.616Z,4.27
2019-04-16T21:32:32.936Z,7.83
2019-04-16T21:38:36.703Z,5.00
2019-04-16T21:41:16.861Z,4.37
2019-04-16T21:43:58.018Z,3.90
2019-04-16T21:46:37.946Z,4.23
2019-04-16T21:49:18.020Z,4.50
2019-04-16T21:52:17.906Z,3.80
2019-04-16T21:55:02.461Z,3.77
2019-04-16T21:57:42.902Z,3.23
2019-04-16T22:03:57.773Z,5.60
2019-04-16T22:06:38.332Z,3.70
2019-04-16T22:09:17.991Z,4.47
2019-04-16T22:11:58.299Z,5.00
2019-04-16T22:14:38.647Z,3.67
2019-04-16T22:17:18.738Z,4.10
2019-04-16T22:20:03.154Z,3.90
2019-04-16T22:22:43.670Z,4.00
2019-04-16T22:25:23.768Z,5.00
2019-04-16T22:28:04.605Z,4.33
2019-04-16T22:30:44.860Z,4.37
2019-04-16T22:33:25.178Z,4.20
2019-04-16T22:36:05.195Z,3.77
2019-04-16T22:38:47.384Z,4.53
2019-04-16T22:41:50.699Z,4.57
2019-04-16T22:44:50.435Z,4.60
2019-04-16T22:47:30.708Z,4.07
2019-04-16T22:50:16.426Z,4.77
2019-04-16T22:52:52.623Z,4.43
2019-04-16T22:55:32.128Z,4.97
2019-04-16T22:58:36.237Z,5.30
2019-04-16T23:01:16.995Z,4.73
2019-04-16T23:03:56.681Z,5.00
2019-04-16T23:06:38.731Z,5.00
2019-04-16T23:09:19.601Z,4.00
2019-04-16T23:11:59.817Z,5.30
2019-04-16T23:14:39.792Z,5.00
2019-04-16T23:17:22.690Z,4.23
2019-04-16T23:20:02.716Z,4.17
2019-04-16T23:22:43.660Z,4.27
2019-04-16T23:25:27.315Z,4.63
2019-04-16T23:28:10.962Z,4.90
2019-04-16T23:30:38.025Z,4.90
2019-04-16T23:33:24.739Z,4.50
2019-04-16T23:36:04.978Z,4.90
2019-04-16T23:38:45.179Z,4.40
2019-04-16T23:41:25.026Z,4.20
2019-04-16T23:44:25.775Z,5.00
2019-04-16T23:47:26.161Z,5.97
2019-04-16T23:50:25.440Z,4.33
2019-04-16T23:53:24.934Z,4.27
2019-04-16T23:56:26.539Z,4.07
2019-04-16T23:59:26.493Z,4.73
